sensor_id;sensor_type;location;lat;lon;timestamp;temperature;humidity
34646;DHT22;20857;47.808;12.482;2022-11-12T00:01:21;3.70;99.90
34646;DHT22;20857;47.808;12.482;2022-11-12T00:03:47;3.50;99.90
34646;DHT22;20857;47.808;12.482;2022-11-12T00:06:12;3.50;99.90
34646;DHT22;20857;47.808;12.482;2022-11-12T00:08:38;3.50;99.90
34646;DHT22;20857;47.808;12.482;2022-11-12T00:11:03;3.60;99.90
34646;DHT22;20857;47.808;12.482;2022-11-12T00:13:29;3.60;99.90
34646;DHT22;20857;47.808;12.482;2022-11-12T00:15:55;3.70;99.90
34646;DHT22;20857;47.808;12.482;2022-11-12T00:18:20;3.60;99.90
34646;DHT22;20857;47.808;12.482;2022-11-12T00:20:46;3.60;99.90
34646;DHT22;20857;47.808;12.482;2022-11-12T00:23:11;3.70;99.90
34646;DHT22;20857;47.808;12.482;2022-11-12T00:25:37;3.70;99.90
34646;DHT22;20857;47.808;12.482;2022-11-12T00:28:03;3.60;99.90
34646;DHT22;20857;47.808;12.482;2022-11-12T00:30:29;3.60;99.90
34646;DHT22;20857;47.808;12.482;2022-11-12T00:32:55;3.50;99.90
34646;DHT22;20857;47.808;12.482;2022-11-12T00:35:20;3.60;99.90
34646;DHT22;20857;47.808;12.482;2022-11-12T00:37:46;3.60;99.90
34646;DHT22;20857;47.808;12.482;2022-11-12T00:40:11;3.60;99.90
34646;DHT22;20857;47.808;12.482;2022-11-12T00:42:36;3.70;99.90
34646;DHT22;20857;47.808;12.482;2022-11-12T00:45:02;3.70;99.90
34646;DHT22;20857;47.808;12.482;2022-11-12T00:47:28;3.70;99.90
34646;DHT22;20857;47.808;12.482;2022-11-12T00:49:53;3.70;99.90
34646;DHT22;20857;47.808;12.482;2022-11-12T00:52:18;3.60;99.90
34646;DHT22;20857;47.808;12.482;2022-11-12T00:54:44;3.50;99.90
34646;DHT22;20857;47.808;12.482;2022-11-12T00:57:09;3.50;99.90
34646;DHT22;20857;47.808;12.482;2022-11-12T00:59:35;3.60;99.90
34646;DHT22;20857;47.808;12.482;2022-11-12T01:02:00;3.60;99.90
34646;DHT22;20857;47.808;12.482;2022-11-12T01:04:26;3.70;99.90
34646;DHT22;20857;47.808;12.482;2022-11-12T01:06:51;3.80;99.90
34646;DHT22;20857;47.808;12.482;2022-11-12T01:09:17;3.70;99.90
34646;DHT22;20857;47.808;12.482;2022-11-12T01:11:42;3.60;99.90
34646;DHT22;20857;47.808;12.482;2022-11-12T01:14:08;3.60;99.90
34646;DHT22;20857;47.808;12.482;2022-11-12T01:16:35;3.70;99.90
34646;DHT22;20857;47.808;12.482;2022-11-12T01:19:02;3.60;99.90
34646;DHT22;20857;47.808;12.482;2022-11-12T01:21:29;3.60;99.90
34646;DHT22;20857;47.808;12.482;2022-11-12T01:23:56;3.60;99.90
34646;DHT22;20857;47.808;12.482;2022-11-12T01:26:21;3.50;99.90
34646;DHT22;20857;47.808;12.482;2022-11-12T01:28:47;3.60;99.90
34646;DHT22;20857;47.808;12.482;2022-11-12T01:31:14;3.80;99.90
34646;DHT22;20857;47.808;12.482;2022-11-12T01:33:40;5.50;99.90
34646;DHT22;20857;47.808;12.482;2022-11-12T01:36:06;3.90;99.90
34646;DHT22;20857;47.808;12.482;2022-11-12T01:38:33;4.00;99.90
34646;DHT22;20857;47.808;12.482;2022-11-12T01:40:58;4.00;99.90
34646;DHT22;20857;47.808;12.482;2022-11-12T01:43:24;3.90;99.90
34646;DHT22;20857;47.808;12.482;2022-11-12T01:45:49;3.00;99.90
34646;DHT22;20857;47.808;12.482;2022-11-12T01:48:22;3.80;99.90
34646;DHT22;20857;47.808;12.482;2022-11-12T01:50:49;3.70;99.90
34646;DHT22;20857;47.808;12.482;2022-11-12T01:53:14;3.50;99.90
34646;DHT22;20857;47.808;12.482;2022-11-12T01:55:40;3.50;99.90
34646;DHT22;20857;47.808;12.482;2022-11-12T01:58:07;3.30;99.90
34646;DHT22;20857;47.808;12.482;2022-11-12T02:00:33;3.20;99.90
34646;DHT22;20857;47.808;12.482;2022-11-12T02:03:00;3.10;99.90
34646;DHT22;20857;47.808;12.482;2022-11-12T02:05:26;3.20;99.90
34646;DHT22;20857;47.808;12.482;2022-11-12T02:07:53;3.20;99.90
34646;DHT22;20857;47.808;12.482;2022-11-12T02:10:19;3.20;99.90
34646;DHT22;20857;47.808;12.482;2022-11-12T02:12:45;3.20;99.90
34646;DHT22;20857;47.808;12.482;2022-11-12T02:15:30;3.30;99.90
34646;DHT22;20857;47.808;12.482;2022-11-12T02:17:55;3.40;99.90
34646;DHT22;20857;47.808;12.482;2022-11-12T02:20:21;3.40;99.90
34646;DHT22;20857;47.808;12.482;2022-11-12T02:22:47;3.40;99.90
34646;DHT22;20857;47.808;12.482;2022-11-12T02:25:13;3.40;99.90
34646;DHT22;20857;47.808;12.482;2022-11-12T02:27:41;3.30;99.90
34646;DHT22;20857;47.808;12.482;2022-11-12T02:32:35;3.20;99.90
34646;DHT22;20857;47.808;12.482;2022-11-12T02:35:01;3.10;99.90
34646;DHT22;20857;47.808;12.482;2022-11-12T02:37:26;3.00;99.90
34646;DHT22;20857;47.808;12.482;2022-11-12T02:39:52;3.10;99.90
34646;DHT22;20857;47.808;12.482;2022-11-12T02:42:17;3.10;99.90
34646;DHT22;20857;47.808;12.482;2022-11-12T02:44:43;3.10;99.90
34646;DHT22;20857;47.808;12.482;2022-11-12T02:47:08;3.10;99.90
34646;DHT22;20857;47.808;12.482;2022-11-12T02:49:34;3.10;99.90
34646;DHT22;20857;47.808;12.482;2022-11-12T02:51:59;3.10;99.90
34646;DHT22;20857;47.808;12.482;2022-11-12T02:54:24;3.10;99.90
34646;DHT22;20857;47.808;12.482;2022-11-12T02:56:50;3.00;99.90
34646;DHT22;20857;47.808;12.482;2022-11-12T02:59:15;2.90;99.90
34646;DHT22;20857;47.808;12.482;2022-11-12T03:01:41;2.90;99.90
34646;DHT22;20857;47.808;12.482;2022-11-12T03:04:06;2.90;99.90
34646;DHT22;20857;47.808;12.482;2022-11-12T03:06:32;2.80;99.90
34646;DHT22;20857;47.808;12.482;2022-11-12T03:08:57;2.80;99.90
34646;DHT22;20857;47.808;12.482;2022-11-12T03:11:23;2.80;99.90
34646;DHT22;20857;47.808;12.482;2022-11-12T03:13:49;2.80;99.90
34646;DHT22;20857;47.808;12.482;2022-11-12T03:16:15;2.80;99.90
34646;DHT22;20857;47.808;12.482;2022-11-12T03:18:40;2.70;99.90
34646;DHT22;20857;47.808;12.482;2022-11-12T03:21:06;2.70;99.90
34646;DHT22;20857;47.808;12.482;2022-11-12T03:23:31;2.80;99.90
34646;DHT22;20857;47.808;12.482;2022-11-12T03:25:57;2.80;99.90
34646;DHT22;20857;47.808;12.482;2022-11-12T03:28:22;2.80;99.90
34646;DHT22;20857;47.808;12.482;2022-11-12T03:30:48;2.80;99.90
34646;DHT22;20857;47.808;12.482;2022-11-12T03:33:13;2.70;99.90
34646;DHT22;20857;47.808;12.482;2022-11-12T03:35:40;2.60;99.90
34646;DHT22;20857;47.808;12.482;2022-11-12T03:38:05;2.40;99.90
34646;DHT22;20857;47.808;12.482;2022-11-12T03:40:31;2.40;99.90
34646;DHT22;20857;47.808;12.482;2022-11-12T03:42:57;2.40;99.90
34646;DHT22;20857;47.808;12.482;2022-11-12T03:45:23;2.30;99.90
34646;DHT22;20857;47.808;12.482;2022-11-12T03:47:54;3.90;99.90
34646;DHT22;20857;47.808;12.482;2022-11-12T03:50:20;2.30;99.90
34646;DHT22;20857;47.808;12.482;2022-11-12T03:52:47;2.40;99.90
34646;DHT22;20857;47.808;12.482;2022-11-12T03:55:13;2.40;99.90
34646;DHT22;20857;47.808;12.482;2022-11-12T03:57:39;2.50;99.90
34646;DHT22;20857;47.808;12.482;2022-11-12T04:00:05;2.60;99.90
34646;DHT22;20857;47.808;12.482;2022-11-12T04:02:31;2.60;99.90
34646;DHT22;20857;47.808;12.482;2022-11-12T04:04:56;2.60;99.90
34646;DHT22;20857;47.808;12.482;2022-11-12T04:07:41;2.40;99.90
34646;DHT22;20857;47.808;12.482;2022-11-12T04:10:25;2.50;99.90
34646;DHT22;20857;47.808;12.482;2022-11-12T04:12:53;2.40;99.90
34646;DHT22;20857;47.808;12.482;2022-11-12T04:15:37;2.30;99.90
34646;DHT22;20857;47.808;12.482;2022-11-12T04:18:02;2.40;99.90
34646;DHT22;20857;47.808;12.482;2022-11-12T04:20:47;2.30;99.90
34646;DHT22;20857;47.808;12.482;2022-11-12T04:23:31;2.30;99.90
34646;DHT22;20857;47.808;12.482;2022-11-12T04:25:57;2.30;99.90
34646;DHT22;20857;47.808;12.482;2022-11-12T04:28:41;2.20;99.90
34646;DHT22;20857;47.808;12.482;2022-11-12T04:31:26;2.10;99.90
34646;DHT22;20857;47.808;12.482;2022-11-12T04:33:52;2.20;99.90
34646;DHT22;20857;47.808;12.482;2022-11-12T04:36:17;2.20;99.90
34646;DHT22;20857;47.808;12.482;2022-11-12T04:38:42;2.20;99.90
34646;DHT22;20857;47.808;12.482;2022-11-12T04:41:08;2.00;99.90
34646;DHT22;20857;47.808;12.482;2022-11-12T04:44:03;1.90;99.90
34646;DHT22;20857;47.808;12.482;2022-11-12T04:46:47;1.90;99.90
34646;DHT22;20857;47.808;12.482;2022-11-12T04:49:12;2.10;99.90
34646;DHT22;20857;47.808;12.482;2022-11-12T04:51:38;2.20;99.90
34646;DHT22;20857;47.808;12.482;2022-11-12T04:54:22;2.20;99.90
34646;DHT22;20857;47.808;12.482;2022-11-12T04:56:47;2.30;99.90
34646;DHT22;20857;47.808;12.482;2022-11-12T04:59:13;2.30;99.90
34646;DHT22;20857;47.808;12.482;2022-11-12T05:01:38;2.30;99.90
34646;DHT22;20857;47.808;12.482;2022-11-12T05:04:04;2.20;99.90
34646;DHT22;20857;47.808;12.482;2022-11-12T05:08:54;2.30;99.90
34646;DHT22;20857;47.808;12.482;2022-11-12T05:11:20;2.30;99.90
34646;DHT22;20857;47.808;12.482;2022-11-12T05:13:45;2.40;99.90
34646;DHT22;20857;47.808;12.482;2022-11-12T05:16:11;2.40;99.90
34646;DHT22;20857;47.808;12.482;2022-11-12T05:18:36;2.40;99.90
34646;DHT22;20857;47.808;12.482;2022-11-12T05:21:02;2.40;99.90
34646;DHT22;20857;47.808;12.482;2022-11-12T05:23:47;2.40;99.90
34646;DHT22;20857;47.808;12.482;2022-11-12T05:26:13;2.30;99.90
34646;DHT22;20857;47.808;12.482;2022-11-12T05:28:38;2.40;99.90
34646;DHT22;20857;47.808;12.482;2022-11-12T05:31:04;2.30;99.90
34646;DHT22;20857;47.808;12.482;2022-11-12T05:33:29;2.20;99.90
34646;DHT22;20857;47.808;12.482;2022-11-12T05:35:55;2.10;99.90
34646;DHT22;20857;47.808;12.482;2022-11-12T05:38:20;2.10;99.90
34646;DHT22;20857;47.808;12.482;2022-11-12T05:40:46;2.00;99.90
34646;DHT22;20857;47.808;12.482;2022-11-12T05:43:11;2.10;99.90
34646;DHT22;20857;47.808;12.482;2022-11-12T05:45:37;2.00;99.90
34646;DHT22;20857;47.808;12.482;2022-11-12T05:48:02;2.00;99.90
34646;DHT22;20857;47.808;12.482;2022-11-12T05:50:28;2.00;99.90
34646;DHT22;20857;47.808;12.482;2022-11-12T05:52:53;2.00;99.90
34646;DHT22;20857;47.808;12.482;2022-11-12T05:55:19;2.10;99.90
34646;DHT22;20857;47.808;12.482;2022-11-12T05:57:44;2.20;99.90
34646;DHT22;20857;47.808;12.482;2022-11-12T06:00:10;2.20;99.90
34646;DHT22;20857;47.808;12.482;2022-11-12T06:02:36;2.20;99.90
34646;DHT22;20857;47.808;12.482;2022-11-12T06:05:01;2.20;99.90
34646;DHT22;20857;47.808;12.482;2022-11-12T06:07:27;2.10;99.90
34646;DHT22;20857;47.808;12.482;2022-11-12T06:09:52;2.00;99.90
34646;DHT22;20857;47.808;12.482;2022-11-12T06:12:17;2.10;99.90
34646;DHT22;20857;47.808;12.482;2022-11-12T06:14:43;2.10;99.90
34646;DHT22;20857;47.808;12.482;2022-11-12T06:17:08;2.00;99.90
34646;DHT22;20857;47.808;12.482;2022-11-12T06:19:34;2.00;99.90
34646;DHT22;20857;47.808;12.482;2022-11-12T06:21:59;2.00;99.90
34646;DHT22;20857;47.808;12.482;2022-11-12T06:24:25;2.00;99.90
34646;DHT22;20857;47.808;12.482;2022-11-12T06:26:50;1.90;99.90
34646;DHT22;20857;47.808;12.482;2022-11-12T06:29:16;2.00;99.90
34646;DHT22;20857;47.808;12.482;2022-11-12T06:31:41;2.00;99.90
34646;DHT22;20857;47.808;12.482;2022-11-12T06:34:07;1.90;99.90
34646;DHT22;20857;47.808;12.482;2022-11-12T06:36:32;1.90;99.90
34646;DHT22;20857;47.808;12.482;2022-11-12T06:38:59;2.10;99.90
34646;DHT22;20857;47.808;12.482;2022-11-12T06:41:25;2.10;99.90
34646;DHT22;20857;47.808;12.482;2022-11-12T06:43:51;2.10;99.90
34646;DHT22;20857;47.808;12.482;2022-11-12T06:46:16;2.00;99.90
34646;DHT22;20857;47.808;12.482;2022-11-12T06:48:42;2.00;99.90
34646;DHT22;20857;47.808;12.482;2022-11-12T06:51:09;2.00;99.90
34646;DHT22;20857;47.808;12.482;2022-11-12T06:53:34;2.10;99.90
34646;DHT22;20857;47.808;12.482;2022-11-12T06:56:00;2.20;99.90
34646;DHT22;20857;47.808;12.482;2022-11-12T06:58:26;2.30;99.90
34646;DHT22;20857;47.808;12.482;2022-11-12T07:00:51;2.20;99.90
34646;DHT22;20857;47.808;12.482;2022-11-12T07:03:18;2.40;99.90
34646;DHT22;20857;47.808;12.482;2022-11-12T07:05:43;2.40;99.90
34646;DHT22;20857;47.808;12.482;2022-11-12T07:08:09;2.50;99.90
34646;DHT22;20857;47.808;12.482;2022-11-12T07:10:34;2.50;99.90
34646;DHT22;20857;47.808;12.482;2022-11-12T07:13:00;2.60;99.90
34646;DHT22;20857;47.808;12.482;2022-11-12T07:15:25;2.60;99.90
34646;DHT22;20857;47.808;12.482;2022-11-12T07:17:51;2.60;99.90
34646;DHT22;20857;47.808;12.482;2022-11-12T07:20:16;2.40;99.90
34646;DHT22;20857;47.808;12.482;2022-11-12T07:22:42;2.50;99.90
34646;DHT22;20857;47.808;12.482;2022-11-12T07:25:07;2.70;99.90
34646;DHT22;20857;47.808;12.482;2022-11-12T07:27:33;2.80;99.90
34646;DHT22;20857;47.808;12.482;2022-11-12T07:29:58;2.90;99.90
34646;DHT22;20857;47.808;12.482;2022-11-12T07:32:24;2.90;99.90
34646;DHT22;20857;47.808;12.482;2022-11-12T07:34:49;3.00;99.90
34646;DHT22;20857;47.808;12.482;2022-11-12T07:37:15;3.20;99.90
34646;DHT22;20857;47.808;12.482;2022-11-12T07:39:40;3.20;99.90
34646;DHT22;20857;47.808;12.482;2022-11-12T07:42:06;3.40;99.90
34646;DHT22;20857;47.808;12.482;2022-11-12T07:44:31;3.40;99.90
34646;DHT22;20857;47.808;12.482;2022-11-12T07:46:57;3.50;99.90
34646;DHT22;20857;47.808;12.482;2022-11-12T07:49:22;3.50;99.90
34646;DHT22;20857;47.808;12.482;2022-11-12T07:51:47;3.50;99.90
34646;DHT22;20857;47.808;12.482;2022-11-12T07:54:13;3.60;99.90
34646;DHT22;20857;47.808;12.482;2022-11-12T07:56:38;3.60;99.90
34646;DHT22;20857;47.808;12.482;2022-11-12T07:59:04;3.60;99.90
34646;DHT22;20857;47.808;12.482;2022-11-12T08:01:34;3.50;99.90
34646;DHT22;20857;47.808;12.482;2022-11-12T08:04:00;3.60;99.90
34646;DHT22;20857;47.808;12.482;2022-11-12T08:06:27;3.60;99.90
34646;DHT22;20857;47.808;12.482;2022-11-12T08:08:53;3.60;99.90
34646;DHT22;20857;47.808;12.482;2022-11-12T08:11:19;3.60;99.90
34646;DHT22;20857;47.808;12.482;2022-11-12T08:13:45;3.70;99.90
34646;DHT22;20857;47.808;12.482;2022-11-12T08:16:11;3.70;99.90
34646;DHT22;20857;47.808;12.482;2022-11-12T08:18:36;3.70;99.90
34646;DHT22;20857;47.808;12.482;2022-11-12T08:21:02;3.80;99.90
34646;DHT22;20857;47.808;12.482;2022-11-12T08:23:28;3.70;99.90
34646;DHT22;20857;47.808;12.482;2022-11-12T08:25:57;3.80;99.90
34646;DHT22;20857;47.808;12.482;2022-11-12T08:28:24;3.90;99.90
34646;DHT22;20857;47.808;12.482;2022-11-12T08:30:49;3.90;99.90
34646;DHT22;20857;47.808;12.482;2022-11-12T08:33:15;4.10;99.90
34646;DHT22;20857;47.808;12.482;2022-11-12T08:35:40;4.20;99.90
34646;DHT22;20857;47.808;12.482;2022-11-12T08:38:06;4.30;99.90
34646;DHT22;20857;47.808;12.482;2022-11-12T08:40:35;4.40;99.90
34646;DHT22;20857;47.808;12.482;2022-11-12T08:43:05;4.40;99.90
34646;DHT22;20857;47.808;12.482;2022-11-12T08:45:31;4.50;99.90
34646;DHT22;20857;47.808;12.482;2022-11-12T08:47:57;4.50;99.90
34646;DHT22;20857;47.808;12.482;2022-11-12T08:50:23;4.60;99.90
34646;DHT22;20857;47.808;12.482;2022-11-12T08:52:49;4.70;99.90
34646;DHT22;20857;47.808;12.482;2022-11-12T08:55:14;4.80;99.90
34646;DHT22;20857;47.808;12.482;2022-11-12T08:57:40;5.00;99.90
34646;DHT22;20857;47.808;12.482;2022-11-12T09:00:07;5.20;99.90
34646;DHT22;20857;47.808;12.482;2022-11-12T09:02:33;5.30;99.90
34646;DHT22;20857;47.808;12.482;2022-11-12T09:04:58;5.40;99.90
34646;DHT22;20857;47.808;12.482;2022-11-12T09:07:24;5.50;99.90
34646;DHT22;20857;47.808;12.482;2022-11-12T09:09:49;5.60;99.90
34646;DHT22;20857;47.808;12.482;2022-11-12T09:12:14;5.70;99.90
34646;DHT22;20857;47.808;12.482;2022-11-12T09:14:44;5.90;99.90
34646;DHT22;20857;47.808;12.482;2022-11-12T09:17:09;6.10;99.90
34646;DHT22;20857;47.808;12.482;2022-11-12T09:19:35;6.30;99.90
34646;DHT22;20857;47.808;12.482;2022-11-12T09:22:00;6.60;99.90
34646;DHT22;20857;47.808;12.482;2022-11-12T09:24:26;6.60;99.90
34646;DHT22;20857;47.808;12.482;2022-11-12T09:26:52;6.80;99.90
34646;DHT22;20857;47.808;12.482;2022-11-12T09:29:18;7.10;99.90
34646;DHT22;20857;47.808;12.482;2022-11-12T09:31:43;6.90;99.90
34646;DHT22;20857;47.808;12.482;2022-11-12T09:34:08;6.80;99.90
34646;DHT22;20857;47.808;12.482;2022-11-12T09:36:34;6.90;99.90
34646;DHT22;20857;47.808;12.482;2022-11-12T09:38:59;7.10;99.90
34646;DHT22;20857;47.808;12.482;2022-11-12T09:43:52;7.30;99.90
34646;DHT22;20857;47.808;12.482;2022-11-12T09:46:26;7.40;99.90
34646;DHT22;20857;47.808;12.482;2022-11-12T09:48:55;7.60;99.90
34646;DHT22;20857;47.808;12.482;2022-11-12T09:51:25;7.70;99.90
34646;DHT22;20857;47.808;12.482;2022-11-12T09:53:54;8.00;99.90
34646;DHT22;20857;47.808;12.482;2022-11-12T09:56:20;8.30;99.90
34646;DHT22;20857;47.808;12.482;2022-11-12T09:58:46;8.40;99.90
34646;DHT22;20857;47.808;12.482;2022-11-12T10:01:13;8.40;99.90
34646;DHT22;20857;47.808;12.482;2022-11-12T10:03:47;8.70;99.90
34646;DHT22;20857;47.808;12.482;2022-11-12T10:06:18;8.80;99.90
34646;DHT22;20857;47.808;12.482;2022-11-12T10:08:47;8.90;99.90
34646;DHT22;20857;47.808;12.482;2022-11-12T10:13:50;9.30;99.90
34646;DHT22;20857;47.808;12.482;2022-11-12T10:19:10;9.30;99.90
34646;DHT22;20857;47.808;12.482;2022-11-12T10:21:53;9.40;99.90
34646;DHT22;20857;47.808;12.482;2022-11-12T10:24:21;9.60;99.90
34646;DHT22;20857;47.808;12.482;2022-11-12T10:26:48;9.70;99.90
34646;DHT22;20857;47.808;12.482;2022-11-12T10:32:02;9.80;99.90
34646;DHT22;20857;47.808;12.482;2022-11-12T10:34:28;9.70;99.90
34646;DHT22;20857;47.808;12.482;2022-11-12T10:36:55;9.70;99.90
34646;DHT22;20857;47.808;12.482;2022-11-12T10:39:34;9.60;99.90
34646;DHT22;20857;47.808;12.482;2022-11-12T10:42:07;9.70;99.90
34646;DHT22;20857;47.808;12.482;2022-11-12T10:44:34;9.90;99.90
34646;DHT22;20857;47.808;12.482;2022-11-12T10:52:33;10.10;99.90
34646;DHT22;20857;47.808;12.482;2022-11-12T10:55:18;10.10;99.90
34646;DHT22;20857;47.808;12.482;2022-11-12T10:57:44;10.20;99.90
34646;DHT22;20857;47.808;12.482;2022-11-12T11:02:45;10.50;99.90
34646;DHT22;20857;47.808;12.482;2022-11-12T11:07:48;10.60;99.90
34646;DHT22;20857;47.808;12.482;2022-11-12T11:10:24;10.70;99.90
34646;DHT22;20857;47.808;12.482;2022-11-12T11:12:50;10.80;99.90
34646;DHT22;20857;47.808;12.482;2022-11-12T11:15:32;11.00;99.90
34646;DHT22;20857;47.808;12.482;2022-11-12T11:17:57;10.90;99.90
34646;DHT22;20857;47.808;12.482;2022-11-12T11:20:25;10.90;99.90
34646;DHT22;20857;47.808;12.482;2022-11-12T11:22:58;10.80;99.90
34646;DHT22;20857;47.808;12.482;2022-11-12T11:25:27;11.00;99.90
34646;DHT22;20857;47.808;12.482;2022-11-12T11:28:06;11.20;99.90
34646;DHT22;20857;47.808;12.482;2022-11-12T11:30:36;11.40;99.90
34646;DHT22;20857;47.808;12.482;2022-11-12T11:33:10;11.60;99.90
34646;DHT22;20857;47.808;12.482;2022-11-12T11:44:00;11.40;99.90
34646;DHT22;20857;47.808;12.482;2022-11-12T11:46:44;11.60;99.90
34646;DHT22;20857;47.808;12.482;2022-11-12T11:49:27;11.60;99.90
34646;DHT22;20857;47.808;12.482;2022-11-12T11:51:57;11.50;99.90
34646;DHT22;20857;47.808;12.482;2022-11-12T11:54:34;11.60;99.90
34646;DHT22;20857;47.808;12.482;2022-11-12T11:57:17;11.60;99.90
34646;DHT22;20857;47.808;12.482;2022-11-12T12:04:50;11.70;99.90
34646;DHT22;20857;47.808;12.482;2022-11-12T12:09:53;11.60;99.90
34646;DHT22;20857;47.808;12.482;2022-11-12T12:14:57;11.70;99.90
34646;DHT22;20857;47.808;12.482;2022-11-12T12:17:31;11.80;99.90
34646;DHT22;20857;47.808;12.482;2022-11-12T12:22:39;12.10;99.90
34646;DHT22;20857;47.808;12.482;2022-11-12T12:27:34;12.20;99.90
34646;DHT22;20857;47.808;12.482;2022-11-12T12:30:03;12.10;99.90
34646;DHT22;20857;47.808;12.482;2022-11-12T12:32:35;12.00;99.90
34646;DHT22;20857;47.808;12.482;2022-11-12T12:37:54;11.60;99.90
34646;DHT22;20857;47.808;12.482;2022-11-12T12:40:22;11.50;99.90
34646;DHT22;20857;47.808;12.482;2022-11-12T12:42:57;11.40;99.90
34646;DHT22;20857;47.808;12.482;2022-11-12T12:47:57;11.20;99.90
34646;DHT22;20857;47.808;12.482;2022-11-12T12:50:23;11.10;99.90
34646;DHT22;20857;47.808;12.482;2022-11-12T12:53:14;11.30;99.90
34646;DHT22;20857;47.808;12.482;2022-11-12T12:55:44;11.10;99.90
34646;DHT22;20857;47.808;12.482;2022-11-12T13:00:59;11.10;99.90
34646;DHT22;20857;47.808;12.482;2022-11-12T13:04:10;11.00;99.90
34646;DHT22;20857;47.808;12.482;2022-11-12T13:08:56;10.90;99.90
34646;DHT22;20857;47.808;12.482;2022-11-12T13:17:08;10.70;99.90
34646;DHT22;20857;47.808;12.482;2022-11-12T13:30:06;10.70;99.90
34646;DHT22;20857;47.808;12.482;2022-11-12T13:32:33;10.70;99.90
34646;DHT22;20857;47.808;12.482;2022-11-12T13:35:13;10.70;99.90
34646;DHT22;20857;47.808;12.482;2022-11-12T13:37:42;10.60;99.90
34646;DHT22;20857;47.808;12.482;2022-11-12T13:40:32;10.70;99.90
34646;DHT22;20857;47.808;12.482;2022-11-12T13:43:02;10.80;99.90
34646;DHT22;20857;47.808;12.482;2022-11-12T13:45:28;10.80;99.90
34646;DHT22;20857;47.808;12.482;2022-11-12T13:47:54;10.90;99.90
34646;DHT22;20857;47.808;12.482;2022-11-12T13:50:22;11.30;99.90
34646;DHT22;20857;47.808;12.482;2022-11-12T13:52:48;10.80;99.90
34646;DHT22;20857;47.808;12.482;2022-11-12T13:55:15;10.70;99.90
34646;DHT22;20857;47.808;12.482;2022-11-12T13:57:41;10.70;99.90
34646;DHT22;20857;47.808;12.482;2022-11-12T14:02:41;10.80;99.90
34646;DHT22;20857;47.808;12.482;2022-11-12T14:05:15;11.30;99.90
34646;DHT22;20857;47.808;12.482;2022-11-12T14:07:49;10.90;99.90
34646;DHT22;20857;47.808;12.482;2022-11-12T14:10:32;10.90;99.90
34646;DHT22;20857;47.808;12.482;2022-11-12T14:18:38;10.90;99.90
34646;DHT22;20857;47.808;12.482;2022-11-12T14:21:12;10.80;99.90
34646;DHT22;20857;47.808;12.482;2022-11-12T14:23:40;10.70;99.90
34646;DHT22;20857;47.808;12.482;2022-11-12T14:26:08;10.60;99.90
34646;DHT22;20857;47.808;12.482;2022-11-12T14:28:37;10.60;99.90
34646;DHT22;20857;47.808;12.482;2022-11-12T14:31:10;11.10;99.90
34646;DHT22;20857;47.808;12.482;2022-11-12T14:33:35;10.60;99.90
34646;DHT22;20857;47.808;12.482;2022-11-12T14:36:04;11.50;99.90
34646;DHT22;20857;47.808;12.482;2022-11-12T14:38:32;10.80;99.90
34646;DHT22;20857;47.808;12.482;2022-11-12T14:41:02;10.20;99.90
34646;DHT22;20857;47.808;12.482;2022-11-12T14:43:45;10.20;99.90
34646;DHT22;20857;47.808;12.482;2022-11-12T14:48:51;10.00;99.90
34646;DHT22;20857;47.808;12.482;2022-11-12T14:51:18;9.90;99.90
34646;DHT22;20857;47.808;12.482;2022-11-12T14:53:46;9.90;99.90
34646;DHT22;20857;47.808;12.482;2022-11-12T14:56:17;9.70;99.90
34646;DHT22;20857;47.808;12.482;2022-11-12T14:58:46;9.60;99.90
34646;DHT22;20857;47.808;12.482;2022-11-12T15:03:43;9.50;99.90
34646;DHT22;20857;47.808;12.482;2022-11-12T15:06:09;10.00;99.90
34646;DHT22;20857;47.808;12.482;2022-11-12T15:08:35;9.30;99.90
34646;DHT22;20857;47.808;12.482;2022-11-12T15:13:48;9.10;99.90
34646;DHT22;20857;47.808;12.482;2022-11-12T15:16:18;8.00;99.90
34646;DHT22;20857;47.808;12.482;2022-11-12T15:19:05;8.90;99.90
34646;DHT22;20857;47.808;12.482;2022-11-12T15:21:32;9.30;99.90
34646;DHT22;20857;47.808;12.482;2022-11-12T15:24:03;8.50;99.90
34646;DHT22;20857;47.808;12.482;2022-11-12T15:26:31;8.50;99.90
34646;DHT22;20857;47.808;12.482;2022-11-12T15:29:39;8.40;99.90
34646;DHT22;20857;47.808;12.482;2022-11-12T15:31:47;8.20;99.90
34646;DHT22;20857;47.808;12.482;2022-11-12T15:34:30;8.00;99.90
34646;DHT22;20857;47.808;12.482;2022-11-12T15:37:34;7.90;99.90
34646;DHT22;20857;47.808;12.482;2022-11-12T15:40:17;8.60;99.90
34646;DHT22;20857;47.808;12.482;2022-11-12T15:42:43;7.70;99.90
34646;DHT22;20857;47.808;12.482;2022-11-12T15:45:19;8.80;99.90
34646;DHT22;20857;47.808;12.482;2022-11-12T15:47:47;7.50;99.90
34646;DHT22;20857;47.808;12.482;2022-11-12T15:50:20;7.40;99.90
34646;DHT22;20857;47.808;12.482;2022-11-12T15:52:47;7.30;99.90
34646;DHT22;20857;47.808;12.482;2022-11-12T15:55:13;7.30;99.90
34646;DHT22;20857;47.808;12.482;2022-11-12T15:57:49;7.20;99.90
34646;DHT22;20857;47.808;12.482;2022-11-12T16:00:16;7.10;99.90
34646;DHT22;20857;47.808;12.482;2022-11-12T16:02:43;7.00;99.90
34646;DHT22;20857;47.808;12.482;2022-11-12T16:05:15;6.90;99.90
34646;DHT22;20857;47.808;12.482;2022-11-12T16:07:40;6.90;99.90
34646;DHT22;20857;47.808;12.482;2022-11-12T16:10:06;6.80;99.90
34646;DHT22;20857;47.808;12.482;2022-11-12T16:12:32;6.70;99.90
34646;DHT22;20857;47.808;12.482;2022-11-12T16:14:59;6.60;99.90
34646;DHT22;20857;47.808;12.482;2022-11-12T16:17:25;6.50;99.90
34646;DHT22;20857;47.808;12.482;2022-11-12T16:19:51;6.40;99.90
34646;DHT22;20857;47.808;12.482;2022-11-12T16:22:16;6.40;99.90
34646;DHT22;20857;47.808;12.482;2022-11-12T16:24:42;6.30;99.90
34646;DHT22;20857;47.808;12.482;2022-11-12T16:27:11;6.20;99.90
34646;DHT22;20857;47.808;12.482;2022-11-12T16:29:37;6.10;99.90
34646;DHT22;20857;47.808;12.482;2022-11-12T16:32:03;6.00;99.90
34646;DHT22;20857;47.808;12.482;2022-11-12T16:34:28;5.90;99.90
34646;DHT22;20857;47.808;12.482;2022-11-12T16:36:54;5.80;99.90
34646;DHT22;20857;47.808;12.482;2022-11-12T16:39:20;5.70;99.90
34646;DHT22;20857;47.808;12.482;2022-11-12T16:41:45;5.70;99.90
34646;DHT22;20857;47.808;12.482;2022-11-12T16:44:11;5.70;99.90
34646;DHT22;20857;47.808;12.482;2022-11-12T16:46:37;5.60;99.90
34646;DHT22;20857;47.808;12.482;2022-11-12T16:49:12;5.60;99.90
34646;DHT22;20857;47.808;12.482;2022-11-12T16:51:37;5.70;99.90
34646;DHT22;20857;47.808;12.482;2022-11-12T16:54:03;5.70;99.90
34646;DHT22;20857;47.808;12.482;2022-11-12T16:56:29;5.80;99.90
34646;DHT22;20857;47.808;12.482;2022-11-12T16:58:54;5.70;99.90
34646;DHT22;20857;47.808;12.482;2022-11-12T17:03:48;5.60;99.90
34646;DHT22;20857;47.808;12.482;2022-11-12T17:06:13;5.60;99.90
34646;DHT22;20857;47.808;12.482;2022-11-12T17:08:39;5.60;99.90